Time;durP1;ratioP1;P1;durP2;ratioP2;P2;SDS_P1;SDS_P2;PMS_P1;PMS_P2;Temp;Humidity;BMP_temperature;BMP_pressure;BME280_temperature;BME280_humidity;BME280_pressure;Samples;Min_cycle;Max_cycle;Signal;HPM_P1;HPM_P2
2021/09/29 00:00:06;;;;;;;1.20;0.70;;;19.40;76.20;;;;;;5093756;28;20423;-64
2021/09/29 00:02:32;;;;;;;0.68;0.60;;;19.40;76.20;;;;;;5093417;28;20040;-64
2021/09/29 00:04:58;;;;;;;1.23;0.60;;;19.40;76.20;;;;;;5093545;28;20044;-64
2021/09/29 00:07:23;;;;;;;1.08;0.73;;;19.40;76.20;;;;;;5093806;28;20457;-64
2021/09/29 00:09:49;;;;;;;0.80;0.70;;;19.40;76.20;;;;;;5093825;28;20028;-61
2021/09/29 00:12:15;;;;;;;1.40;0.80;;;19.40;76.20;;;;;;5093605;28;20529;-64
2021/09/29 00:14:40;;;;;;;1.27;0.82;;;19.40;76.20;;;;;;5093508;28;20079;-65
2021/09/29 00:17:06;;;;;;;0.60;0.60;;;19.40;76.20;;;;;;5092502;28;20052;-65
2021/09/29 00:19:32;;;;;;;1.65;0.60;;;19.40;76.20;;;;;;5092988;28;20035;-65
2021/09/29 00:21:58;;;;;;;0.95;0.88;;;19.40;76.20;;;;;;5092829;28;20055;-65
2021/09/29 00:24:23;;;;;;;1.58;0.90;;;19.40;76.20;;;;;;5092860;28;20079;-65
2021/09/29 00:26:49;;;;;;;1.30;0.85;;;19.40;76.20;;;;;;5091499;28;20052;-63
2021/09/29 00:29:14;;;;;;;1.27;1.02;;;19.40;76.10;;;;;;5093146;28;20104;-64
2021/09/29 00:31:40;;;;;;;1.15;1.05;;;19.30;76.10;;;;;;5093554;28;20032;-65
2021/09/29 00:34:12;;;;;;;1.35;0.85;;;19.40;76.20;;;;;;5091673;28;20056;-65
2021/09/29 00:36:41;;;;;;;2.15;0.95;;;19.40;76.20;;;;;;5092598;28;20071;-64
2021/09/29 00:39:08;;;;;;;1.20;0.88;;;19.40;76.20;;;;;;5093142;28;20047;-64
2021/09/29 00:41:34;;;;;;;1.35;0.85;;;19.40;76.20;;;;;;5093275;28;20040;-64
2021/09/29 00:44:00;;;;;;;0.95;0.60;;;19.40;76.20;;;;;;5093121;28;20520;-65
2021/09/29 00:46:26;;;;;;;1.25;0.80;;;19.40;76.20;;;;;;5093241;28;20036;-63
2021/09/29 00:48:52;;;;;;;1.20;1.10;;;19.40;76.10;;;;;;5092156;28;20396;-65
2021/09/29 00:51:18;;;;;;;0.60;0.60;;;19.40;76.20;;;;;;5092293;28;20455;-62
2021/09/29 00:53:45;;;;;;;1.85;1.02;;;19.40;76.20;;;;;;5093400;28;20040;-59
2021/09/29 00:56:11;;;;;;;1.67;1.00;;;19.40;76.20;;;;;;5093151;28;20556;-64
2021/09/29 00:58:37;;;;;;;0.93;0.80;;;19.40;76.20;;;;;;5092887;28;20051;-62
2021/09/29 01:01:03;;;;;;;1.55;1.17;;;19.40;76.20;;;;;;5093061;28;20044;-63
2021/09/29 01:03:29;;;;;;;1.52;1.23;;;19.40;76.20;;;;;;5092906;28;20127;-61
2021/09/29 01:06:00;;;;;;;1.23;0.93;;;19.40;76.20;;;;;;5092637;28;20383;-64
2021/09/29 01:08:36;;;;;;;1.88;0.93;;;19.40;76.10;;;;;;5091137;28;20488;-63
2021/09/29 01:11:11;;;;;;;1.33;0.73;;;19.40;76.20;;;;;;5092902;28;20032;-63
2021/09/29 01:13:54;;;;;;;1.60;0.80;;;19.40;76.10;;;;;;5092700;28;20052;-64
2021/09/29 01:16:21;;;;;;;1.05;0.75;;;19.40;76.20;;;;;;5092742;28;20048;-62
2021/09/29 01:18:57;;;;;;;1.20;0.80;;;19.40;76.20;;;;;;5092619;28;20067;-58
2021/09/29 01:21:24;;;;;;;2.22;0.88;;;19.40;76.20;;;;;;5092393;28;20508;-56
2021/09/29 01:24:05;;;;;;;1.55;0.88;;;19.40;76.20;;;;;;5091464;28;20051;-63
2021/09/29 01:26:37;;;;;;;1.52;0.95;;;19.40;76.10;;;;;;5092323;28;20373;-55
2021/09/29 01:29:11;;;;;;;1.00;0.80;;;19.40;76.20;;;;;;5092675;28;20451;-55
2021/09/29 01:31:37;;;;;;;1.20;0.70;;;19.40;76.10;;;;;;5092170;28;20085;-56
2021/09/29 01:34:05;;;;;;;0.90;0.60;;;19.40;76.20;;;;;;5090904;28;20480;-55
2021/09/29 01:36:31;;;;;;;1.48;1.08;;;19.40;76.20;;;;;;5092558;28;20086;-64
2021/09/29 01:38:59;;;;;;;1.00;0.88;;;19.40;76.10;;;;;;5091227;28;20044;-56
2021/09/29 01:41:31;;;;;;;1.02;0.82;;;19.40;76.20;;;;;;5090550;28;20048;-56
2021/09/29 01:43:58;;;;;;;1.00;0.70;;;19.40;76.20;;;;;;5092434;28;20081;-56
2021/09/29 01:46:28;;;;;;;0.85;0.77;;;19.40;76.20;;;;;;5092222;28;20039;-65
2021/09/29 01:49:18;;;;;;;1.23;0.70;;;19.40;76.10;;;;;;5091844;28;20104;-63
2021/09/29 01:51:47;;;;;;;1.58;1.10;;;19.40;76.20;;;;;;5092325;28;20408;-63
2021/09/29 01:54:15;;;;;;;1.63;0.93;;;19.40;76.10;;;;;;5091695;28;20377;-57
2021/09/29 01:56:42;;;;;;;1.08;0.80;;;19.40;76.10;;;;;;5092363;28;20040;-59
2021/09/29 01:59:08;;;;;;;1.33;1.10;;;19.40;76.10;;;;;;5092076;28;20043;-56
2021/09/29 02:01:38;;;;;;;1.33;0.93;;;19.30;76.10;;;;;;5091639;28;20109;-61
2021/09/29 02:04:05;;;;;;;1.20;1.00;;;19.30;76.00;;;;;;5092160;28;20048;-64
2021/09/29 02:06:42;;;;;;;1.50;0.80;;;19.40;76.10;;;;;;5091826;28;20036;-65
2021/09/29 02:09:07;;;;;;;1.05;0.82;;;19.30;76.10;;;;;;5091936;28;20044;-62
2021/09/29 02:11:33;;;;;;;1.55;1.00;;;19.30;76.10;;;;;;5091910;28;20059;-64
2021/09/29 02:13:58;;;;;;;2.00;0.98;;;19.30;76.10;;;;;;5092078;28;20040;-63
2021/09/29 02:16:24;;;;;;;0.90;0.70;;;19.40;76.10;;;;;;5091577;28;20051;-59
2021/09/29 02:18:50;;;;;;;1.60;0.70;;;19.40;76.10;;;;;;5092177;28;20028;-59
2021/09/29 02:21:15;;;;;;;1.67;0.80;;;19.30;76.10;;;;;;5091761;28;20459;-64
2021/09/29 02:23:41;;;;;;;1.30;0.80;;;19.30;76.10;;;;;;5092054;28;20412;-60
2021/09/29 02:26:07;;;;;;;1.08;0.65;;;19.30;76.10;;;;;;5091642;28;20040;-65
2021/09/29 02:28:32;;;;;;;1.50;0.70;;;19.30;76.00;;;;;;5090347;28;20139;-65
2021/09/29 02:30:58;;;;;;;0.85;0.80;;;19.30;76.10;;;;;;5091815;28;20464;-65
2021/09/29 02:33:24;;;;;;;2.08;0.90;;;19.40;76.10;;;;;;5092020;28;20047;-64
2021/09/29 02:35:49;;;;;;;1.00;0.80;;;19.40;76.10;;;;;;5091927;28;20032;-61
2021/09/29 02:38:15;;;;;;;0.77;0.75;;;19.30;76.00;;;;;;5091993;28;20458;-64
2021/09/29 02:40:40;;;;;;;1.92;0.82;;;19.30;76.00;;;;;;5091961;28;20048;-61
2021/09/29 02:43:07;;;;;;;1.50;0.80;;;19.30;76.00;;;;;;5091297;28;20051;-64
2021/09/29 02:45:32;;;;;;;1.58;0.88;;;19.30;76.00;;;;;;5091938;28;20040;-65
2021/09/29 02:47:58;;;;;;;1.27;1.05;;;19.30;76.10;;;;;;5091999;28;20080;-63
2021/09/29 02:50:24;;;;;;;0.98;0.70;;;19.30;76.00;;;;;;5093460;28;20541;-65
2021/09/29 02:52:49;;;;;;;1.20;0.90;;;19.30;76.00;;;;;;5095654;28;20039;-62
2021/09/29 02:55:15;;;;;;;1.30;0.90;;;19.30;76.10;;;;;;5095045;28;20055;-65
2021/09/29 02:57:41;;;;;;;2.05;0.75;;;19.30;76.70;;;;;;5094865;28;20072;-63
2021/09/29 03:00:07;;;;;;;1.15;0.73;;;19.30;76.00;;;;;;5095044;28;20520;-64
2021/09/29 03:02:33;;;;;;;1.00;0.80;;;19.30;76.00;;;;;;5094889;28;20044;-64
2021/09/29 03:04:58;;;;;;;0.90;0.80;;;19.30;76.00;;;;;;5094256;28;20054;-62
2021/09/29 03:07:24;;;;;;;1.15;0.90;;;19.30;76.00;;;;;;5095629;28;20051;-64
2021/09/29 03:09:50;;;;;;;1.42;0.90;;;19.30;76.00;;;;;;5095165;28;20110;-62
2021/09/29 03:12:15;;;;;;;1.27;1.00;;;19.40;76.10;;;;;;5093551;28;20093;-64
2021/09/29 03:14:41;;;;;;;1.23;0.80;;;19.30;76.00;;;;;;5094526;28;20055;-59
2021/09/29 03:17:07;;;;;;;1.00;0.90;;;19.30;76.00;;;;;;5095038;28;20040;-62
2021/09/29 03:19:32;;;;;;;0.80;0.80;;;19.30;76.00;;;;;;5094563;28;20056;-63
2021/09/29 03:22:01;;;;;;;1.73;1.08;;;19.30;76.00;;;;;;5094587;28;20173;-62
2021/09/29 03:24:27;;;;;;;1.25;1.10;;;19.30;76.00;;;;;;5094761;28;20052;-59
2021/09/29 03:26:53;;;;;;;1.25;0.98;;;19.30;76.00;;;;;;5094750;28;20040;-63
2021/09/29 03:29:18;;;;;;;1.38;0.90;;;19.30;76.00;;;;;;5094173;28;20400;-58
2021/09/29 03:31:44;;;;;;;1.40;1.00;;;19.40;76.00;;;;;;5094486;28;20040;-63
2021/09/29 03:34:11;;;;;;;3.17;0.88;;;19.30;76.00;;;;;;5094419;28;20419;-65
2021/09/29 03:36:37;;;;;;;0.75;0.68;;;19.30;76.00;;;;;;5094517;28;20059;-61
2021/09/29 03:39:04;;;;;;;1.10;0.70;;;19.30;76.00;;;;;;5094363;28;20392;-63
2021/09/29 03:41:30;;;;;;;1.70;1.10;;;19.30;76.00;;;;;;5094259;28;20036;-62
2021/09/29 03:43:56;;;;;;;1.38;0.93;;;19.30;76.00;;;;;;5094467;28;20055;-63
2021/09/29 03:46:21;;;;;;;1.17;0.90;;;19.30;75.90;;;;;;5093718;28;20040;-63
2021/09/29 03:48:47;;;;;;;1.27;1.05;;;19.30;75.90;;;;;;5094014;28;20063;-55
2021/09/29 03:51:13;;;;;;;1.80;0.90;;;19.30;75.90;;;;;;5094261;28;20547;-61
2021/09/29 03:53:38;;;;;;;1.75;0.98;;;19.30;75.90;;;;;;5094198;28;20044;-64
2021/09/29 03:56:05;;;;;;;1.20;1.00;;;19.30;75.90;;;;;;5092384;28;20178;-64
2021/09/29 03:58:30;;;;;;;1.50;1.10;;;19.30;75.90;;;;;;5094117;28;20070;-60
2021/09/29 04:00:57;;;;;;;1.75;1.00;;;19.20;75.90;;;;;;5091676;28;20048;-56
2021/09/29 04:03:23;;;;;;;1.10;0.95;;;19.30;75.90;;;;;;5093967;28;20043;-58
2021/09/29 04:05:49;;;;;;;1.00;0.82;;;19.30;75.90;;;;;;5093630;28;20404;-57
2021/09/29 04:08:15;;;;;;;2.17;1.08;;;19.30;75.90;;;;;;5093528;28;20052;-62
2021/09/29 04:10:41;;;;;;;1.33;1.00;;;19.30;76.00;;;;;;5093555;28;20040;-63
2021/09/29 04:13:07;;;;;;;1.85;1.10;;;19.20;75.90;;;;;;5093575;28;20527;-58
2021/09/29 04:15:34;;;;;;;0.90;0.90;;;19.30;75.90;;;;;;5093279;28;20047;-55
2021/09/29 04:18:00;;;;;;;1.55;1.33;;;19.30;75.90;;;;;;5093246;28;20048;-55
2021/09/29 04:20:26;;;;;;;1.08;0.98;;;19.20;75.90;;;;;;5093525;28;20048;-59
2021/09/29 04:22:53;;;;;;;1.48;1.00;;;19.30;75.90;;;;;;5092941;28;20511;-55
2021/09/29 04:25:20;;;;;;;0.73;0.73;;;19.30;75.90;;;;;;5093533;28;20120;-66
2021/09/29 04:27:46;;;;;;;1.58;0.80;;;19.30;76.60;;;;;;5093498;28;20115;-66
2021/09/29 04:30:14;;;;;;;1.65;1.40;;;19.30;75.90;;;;;;5093700;28;20456;-65
2021/09/29 04:32:41;;;;;;;1.17;1.08;;;19.20;75.90;;;;;;5092893;28;20048;-65
2021/09/29 04:35:07;;;;;;;1.17;1.00;;;19.20;75.90;;;;;;5093366;28;20552;-66
2021/09/29 04:37:33;;;;;;;1.58;1.20;;;19.20;75.90;;;;;;5093264;28;20044;-64
2021/09/29 04:39:59;;;;;;;1.50;1.20;;;19.30;75.90;;;;;;5093395;28;20053;-65
2021/09/29 04:42:25;;;;;;;1.55;1.10;;;19.20;75.80;;;;;;5093339;28;20044;-65
2021/09/29 04:44:50;;;;;;;1.23;1.00;;;19.20;75.80;;;;;;5093349;28;20111;-65
2021/09/29 04:47:16;;;;;;;1.05;0.90;;;19.20;75.90;;;;;;5092819;28;20052;-65
2021/09/29 04:49:42;;;;;;;1.23;0.93;;;19.30;75.90;;;;;;5092352;28;20043;-65
2021/09/29 04:52:07;;;;;;;1.70;1.30;;;19.20;75.90;;;;;;5092767;28;20127;-65
2021/09/29 04:54:33;;;;;;;1.13;0.90;;;19.20;75.90;;;;;;5093081;28;20036;-67
2021/09/29 04:56:59;;;;;;;2.50;1.30;;;19.20;76.50;;;;;;5092841;28;20384;-65
2021/09/29 04:59:24;;;;;;;2.38;1.40;;;19.20;75.90;;;;;;5092557;28;20044;-65
2021/09/29 05:01:50;;;;;;;1.15;1.00;;;19.20;75.90;;;;;;5092840;28;20044;-60
2021/09/29 05:04:17;;;;;;;1.02;0.93;;;19.20;75.80;;;;;;5092264;28;20055;-60
2021/09/29 05:06:44;;;;;;;1.88;1.35;;;19.20;75.80;;;;;;5091407;28;20056;-64
2021/09/29 05:09:09;;;;;;;1.92;1.30;;;19.30;75.90;;;;;;5091465;28;20356;-63
2021/09/29 05:11:46;;;;;;;1.77;1.20;;;19.20;75.90;;;;;;5091373;28;20108;-62
2021/09/29 05:14:11;;;;;;;1.35;1.00;;;19.20;75.80;;;;;;5092415;28;20044;-62
2021/09/29 05:16:37;;;;;;;1.98;1.23;;;19.20;75.80;;;;;;5093317;28;20043;-63
2021/09/29 05:19:04;;;;;;;1.98;1.10;;;19.20;75.90;;;;;;5092360;28;20418;-63
2021/09/29 05:21:30;;;;;;;1.50;1.25;;;19.20;75.80;;;;;;5091797;28;20109;-65
2021/09/29 05:23:55;;;;;;;1.13;0.90;;;19.20;75.80;;;;;;5092416;28;20052;-61
2021/09/29 05:26:21;;;;;;;1.13;1.00;;;19.20;75.80;;;;;;5092437;28;20044;-61
2021/09/29 05:28:50;;;;;;;1.67;1.17;;;19.30;75.90;;;;;;5092188;28;20063;-62
2021/09/29 05:31:16;;;;;;;1.73;1.30;;;19.20;75.80;;;;;;5091654;28;20082;-61
2021/09/29 05:33:42;;;;;;;1.02;0.93;;;19.20;75.80;;;;;;5091648;28;20046;-63
2021/09/29 05:36:07;;;;;;;1.35;1.02;;;19.20;75.80;;;;;;5091879;28;20391;-60
2021/09/29 05:38:33;;;;;;;1.30;1.10;;;19.20;75.80;;;;;;5092559;28;20046;-61
2021/09/29 05:40:58;;;;;;;1.90;1.15;;;19.20;75.80;;;;;;5092102;28;20127;-62
2021/09/29 05:43:24;;;;;;;1.30;0.90;;;19.20;75.80;;;;;;5092268;28;20127;-59
2021/09/29 05:45:52;;;;;;;2.15;1.30;;;19.20;75.80;;;;;;5092384;28;20062;-58
2021/09/29 05:48:18;;;;;;;1.58;1.15;;;19.20;75.80;;;;;;5092373;28;20160;-62
2021/09/29 05:50:44;;;;;;;1.92;1.20;;;19.20;75.80;;;;;;5092113;28;20118;-61
2021/09/29 05:53:10;;;;;;;1.95;0.98;;;19.20;75.80;;;;;;5091653;28;20083;-62
2021/09/29 05:55:35;;;;;;;2.05;1.23;;;19.20;75.80;;;;;;5092215;28;20115;-62
2021/09/29 05:58:01;;;;;;;2.03;1.00;;;19.20;75.80;;;;;;5091848;28;20052;-61
2021/09/29 06:00:27;;;;;;;1.45;1.27;;;19.20;75.80;;;;;;5092305;28;20050;-60
2021/09/29 06:02:53;;;;;;;2.33;1.30;;;19.20;75.80;;;;;;5090647;28;20093;-62
2021/09/29 06:05:21;;;;;;;1.45;1.30;;;19.20;75.80;;;;;;5092244;28;20528;-60
2021/09/29 06:07:48;;;;;;;1.40;1.20;;;19.10;75.70;;;;;;5091520;28;20773;-61
2021/09/29 06:10:13;;;;;;;1.65;1.10;;;19.20;75.80;;;;;;5091941;28;20144;-58
2021/09/29 06:12:39;;;;;;;1.10;1.00;;;19.20;75.80;;;;;;5090640;28;20084;-62
2021/09/29 06:15:06;;;;;;;1.30;1.00;;;19.20;75.80;;;;;;5091925;28;20094;-62
2021/09/29 06:17:40;;;;;;;1.15;1.05;;;19.20;75.80;;;;;;5090526;28;20054;-63
2021/09/29 06:20:07;;;;;;;1.50;1.33;;;19.20;75.80;;;;;;5091974;28;20079;-62
2021/09/29 06:22:34;;;;;;;1.10;1.00;;;19.20;75.80;;;;;;5091492;28;20306;-56
2021/09/29 06:25:00;;;;;;;1.70;1.10;;;19.20;75.90;;;;;;5094677;28;20036;-56
2021/09/29 06:27:26;;;;;;;1.95;1.30;;;19.20;75.80;;;;;;5095623;28;20040;-56
2021/09/29 06:29:52;;;;;;;1.85;1.30;;;19.20;75.80;;;;;;5095809;28;20044;-55
2021/09/29 06:32:18;;;;;;;1.10;1.00;;;19.20;75.80;;;;;;5095663;28;20044;-55
2021/09/29 06:34:44;;;;;;;1.98;1.20;;;19.20;75.80;;;;;;5095916;28;20499;-57
2021/09/29 06:37:09;;;;;;;1.40;1.20;;;19.20;75.80;;;;;;5095609;28;20438;-56
2021/09/29 06:39:35;;;;;;;1.50;0.93;;;19.10;75.70;;;;;;5095176;28;20094;-55
2021/09/29 06:42:01;;;;;;;1.15;0.98;;;19.20;75.80;;;;;;5095260;28;20131;-57
2021/09/29 06:44:28;;;;;;;1.98;1.10;;;19.10;75.70;;;;;;5095074;28;20201;-57
2021/09/29 06:46:54;;;;;;;1.60;1.15;;;19.20;75.80;;;;;;5093842;28;20059;-54
2021/09/29 06:49:20;;;;;;;0.90;0.82;;;19.20;75.80;;;;;;5093909;28;20044;-62
2021/09/29 06:51:46;;;;;;;1.80;1.40;;;19.20;75.80;;;;;;5095321;28;20070;-64
2021/09/29 06:54:11;;;;;;;1.38;1.20;;;19.10;75.80;;;;;;5094940;28;20070;-64
2021/09/29 06:56:37;;;;;;;8.88;3.85;;;19.20;75.80;;;;;;5094535;28;20524;-61
2021/09/29 06:59:03;;;;;;;3.03;2.03;;;19.10;74.40;;;;;;5094872;28;20047;-60
2021/09/29 07:01:29;;;;;;;4.15;2.20;;;19.10;74.20;;;;;;5094955;28;20048;-62
2021/09/29 07:03:54;;;;;;;4.28;2.53;;;19.10;74.40;;;;;;5095077;28;20391;-57
2021/09/29 07:06:20;;;;;;;3.47;2.08;;;19.10;74.50;;;;;;5094846;28;20484;-59
2021/09/29 07:08:48;;;;;;;5.13;2.35;;;19.10;74.50;;;;;;5095105;28;20044;-57
2021/09/29 07:11:16;;;;;;;3.92;2.50;;;19.00;74.50;;;;;;5083830;28;20055;-62
2021/09/29 07:13:42;;;;;;;4.63;2.67;;;19.00;74.60;;;;;;5075001;28;20041;-58
2021/09/29 07:16:09;;;;;;;3.58;2.03;;;19.10;74.70;;;;;;5074748;28;20090;-61
2021/09/29 07:18:38;;;;;;;5.50;2.45;;;19.00;74.80;;;;;;5072681;28;20110;-60
2021/09/29 07:21:03;;;;;;;4.35;2.55;;;19.10;74.80;;;;;;5074720;28;20381;-60
2021/09/29 07:23:30;;;;;;;3.35;1.85;;;19.10;74.90;;;;;;5072933;28;20059;-62
2021/09/29 07:25:56;;;;;;;3.47;2.00;;;19.10;75.00;;;;;;5073467;28;20045;-58
2021/09/29 07:28:22;;;;;;;2.33;2.10;;;19.10;75.00;;;;;;5093101;28;20044;-57
2021/09/29 07:30:48;;;;;;;2.70;1.88;;;19.10;75.10;;;;;;5094911;28;20036;-60
2021/09/29 07:33:15;;;;;;;4.10;2.13;;;19.10;75.10;;;;;;5094017;28;20160;-59
2021/09/29 07:35:43;;;;;;;3.42;2.00;;;19.10;75.10;;;;;;5093517;28;20598;-61
2021/09/29 07:38:11;;;;;;;6.40;2.47;;;19.10;75.20;;;;;;5094527;28;20094;-60
2021/09/29 07:40:37;;;;;;;2.97;2.10;;;19.00;75.10;;;;;;5093880;28;20046;-59
2021/09/29 07:43:04;;;;;;;2.83;1.90;;;19.10;75.20;;;;;;5093748;28;20553;-57
2021/09/29 07:45:30;;;;;;;4.18;2.10;;;19.00;75.20;;;;;;5094620;28;20055;-57
2021/09/29 07:47:56;;;;;;;3.60;2.05;;;19.10;75.20;;;;;;5094012;28;20044;-62
2021/09/29 07:50:23;;;;;;;2.80;2.13;;;19.10;75.30;;;;;;5094536;28;20123;-60
2021/09/29 07:52:48;;;;;;;2.80;1.58;;;19.10;75.30;;;;;;5093940;28;20048;-59
2021/09/29 07:55:15;;;;;;;2.67;1.80;;;19.10;75.30;;;;;;5093736;28;20040;-57
2021/09/29 07:57:42;;;;;;;2.85;1.85;;;19.10;75.30;;;;;;5093817;28;20055;-58
2021/09/29 08:00:09;;;;;;;3.25;2.33;;;19.10;75.30;;;;;;5094174;28;20032;-58
2021/09/29 08:02:34;;;;;;;3.03;1.90;;;19.10;75.30;;;;;;5093180;28;20040;-58
2021/09/29 08:05:02;;;;;;;4.00;1.73;;;19.10;75.40;;;;;;5093951;28;20050;-61
2021/09/29 08:07:29;;;;;;;3.35;1.77;;;19.10;75.40;;;;;;5093987;28;20046;-60
2021/09/29 08:09:54;;;;;;;2.53;1.70;;;19.10;75.40;;;;;;5093151;28;20047;-59
2021/09/29 08:12:20;;;;;;;2.42;1.67;;;19.00;75.40;;;;;;5092509;28;20043;-58
2021/09/29 08:14:46;;;;;;;2.53;1.58;;;19.10;75.40;;;;;;5092652;28;20565;-60
2021/09/29 08:17:12;;;;;;;2.10;1.48;;;19.00;75.40;;;;;;5093332;28;20404;-61
2021/09/29 08:19:37;;;;;;;2.80;1.70;;;19.10;75.50;;;;;;5093552;28;20050;-56
2021/09/29 08:22:06;;;;;;;2.10;1.70;;;19.10;75.50;;;;;;5093297;28;20044;-61
2021/09/29 08:25:00;;;;;;;2.13;1.60;;;19.00;75.40;;;;;;5093310;28;20200;-61
2021/09/29 08:30:17;;;;;;;3.03;1.52;;;19.00;75.40;;;;;;5092921;28;20059;-57
2021/09/29 08:32:52;;;;;;;2.67;1.60;;;19.00;75.40;;;;;;5091705;28;20123;-59
2021/09/29 08:38:03;;;;;;;2.42;1.50;;;19.00;75.50;;;;;;5092795;28;20048;-59
2021/09/29 08:40:53;;;;;;;2.20;1.60;;;19.00;76.10;;;;;;5092996;28;20036;-59
2021/09/29 08:46:08;;;;;;;2.38;1.88;;;19.00;75.50;;;;;;5088887;28;20444;-62
2021/09/29 08:48:42;;;;;;;2.58;1.42;;;19.00;75.50;;;;;;5082826;28;20044;-62
2021/09/29 09:18:31;;;;;;;2.50;1.67;;;19.00;75.70;;;;;;5069871;28;20067;-52
2021/09/29 09:21:03;;;;;;;1.35;1.25;;;19.00;75.70;;;;;;5070396;28;20436;-56
2021/09/29 09:23:49;;;;;;;1.83;1.40;;;19.00;75.60;;;;;;5069744;28;20068;-53
2021/09/29 09:26:21;;;;;;;2.10;1.58;;;19.00;75.80;;;;;;5053609;28;20123;-54
2021/09/29 09:28:49;;;;;;;2.38;1.52;;;19.00;75.60;;;;;;5070223;28;20467;-59
2021/09/29 09:31:20;;;;;;;1.92;1.17;;;19.00;75.70;;;;;;5069798;28;20638;-55
2021/09/29 09:33:52;;;;;;;2.15;1.67;;;19.00;75.70;;;;;;5052576;28;20098;-60
2021/09/29 09:36:50;;;;;;;1.38;1.10;;;19.00;75.70;;;;;;5083387;28;20048;-56
2021/09/29 09:39:20;;;;;;;1.80;1.27;;;19.00;75.80;;;;;;5092713;28;20048;-55
2021/09/29 09:41:56;;;;;;;1.85;1.25;;;19.00;75.70;;;;;;5092796;28;20040;-58
2021/09/29 09:44:29;;;;;;;1.30;1.20;;;19.00;75.70;;;;;;5092645;28;20500;-52
2021/09/29 09:47:06;;;;;;;1.83;1.40;;;19.00;75.70;;;;;;5092336;28;20068;-56
2021/09/29 09:49:43;;;;;;;1.65;1.52;;;19.00;75.70;;;;;;5092345;28;20136;-59
2021/09/29 09:52:09;;;;;;;1.77;1.40;;;19.00;75.80;;;;;;5092826;28;20123;-54
2021/09/29 09:54:37;;;;;;;1.75;1.10;;;19.00;75.70;;;;;;5092118;28;20119;-54
2021/09/29 09:57:08;;;;;;;2.15;1.25;;;19.00;75.70;;;;;;5092692;28;20091;-57
2021/09/29 09:59:34;;;;;;;1.83;1.30;;;19.00;75.70;;;;;;5093242;28;20400;-61
2021/09/29 10:01:59;;;;;;;3.20;1.30;;;19.00;75.70;;;;;;5094985;28;20040;-61
2021/09/29 10:04:25;;;;;;;2.20;1.23;;;19.00;75.70;;;;;;5093565;28;20115;-61
2021/09/29 10:06:50;;;;;;;2.58;1.50;;;19.00;75.70;;;;;;5096578;28;20443;-58
2021/09/29 10:12:18;;;;;;;1.77;1.30;;;19.00;75.70;;;;;;5096379;28;20048;-52
2021/09/29 10:28:13;;;;;;;1.90;1.23;;;19.00;75.70;;;;;;5096196;28;20044;-62
2021/09/29 10:30:53;;;;;;;;;;;19.00;75.80;;;;;;5095978;28;20048;-59
2021/09/29 10:33:25;;;;;;;1.80;1.40;;;19.00;76.20;;;;;;5093446;28;20072;-61
2021/09/29 10:36:03;;;;;;;1.33;1.20;;;19.00;75.90;;;;;;5092377;28;20040;-60
2021/09/29 10:41:50;;;;;;;1.92;1.17;;;19.00;75.90;;;;;;5092202;28;20048;-61
2021/09/29 10:44:08;;;;;;;1.30;1.15;;;19.00;75.80;;;;;;5091526;28;20040;-54
2021/09/29 10:49:42;;;;;;;1.40;1.23;;;19.00;75.80;;;;;;5091693;28;20373;-50
2021/09/29 11:30:45;;;;;;;1.83;0.95;;;19.00;75.90;;;;;;5094101;28;20066;-55
2021/09/29 11:33:28;;;;;;;1.50;1.00;;;19.00;75.90;;;;;;5094794;28;20503;-58
2021/09/29 11:38:45;;;;;;;1.63;1.00;;;18.90;75.80;;;;;;5093937;28;20062;-59
2021/09/29 12:11:25;;;;;;;2.50;1.17;;;18.90;75.90;;;;;;5052041;28;20590;-58
2021/09/29 12:14:03;;;;;;;1.42;1.20;;;19.00;75.90;;;;;;5051686;28;20137;-61
2021/09/29 12:16:35;;;;;;;1.17;1.08;;;18.90;75.90;;;;;;5051827;28;20085;-61
2021/09/29 12:19:04;;;;;;;1.08;0.90;;;18.90;75.80;;;;;;5051510;28;20534;-62
2021/09/29 12:21:49;;;;;;;0.93;0.85;;;19.00;75.90;;;;;;5051930;28;20111;-62
2021/09/29 12:24:30;;;;;;;0.90;0.90;;;18.90;75.90;;;;;;5062766;28;20083;-62
2021/09/29 12:26:59;;;;;;;0.85;0.85;;;18.90;75.90;;;;;;5070984;28;20624;-60
2021/09/29 12:29:38;;;;;;;1.38;1.00;;;18.90;75.80;;;;;;5071573;28;20401;-61
2021/09/29 12:35:34;;;;;;;1.65;0.95;;;19.00;76.00;;;;;;5093733;28;20444;-61
2021/09/29 12:38:03;;;;;;;1.75;1.15;;;19.00;76.10;;;;;;5070908;28;20079;-60
2021/09/29 12:40:32;;;;;;;0.90;0.90;;;18.90;76.00;;;;;;5070734;28;20128;-57
2021/09/29 12:43:03;;;;;;;0.85;0.70;;;18.90;76.00;;;;;;5069890;28;20451;-61
2021/09/29 12:45:34;;;;;;;1.50;1.10;;;18.90;76.00;;;;;;5070907;28;20163;-57
2021/09/29 12:48:01;;;;;;;1.08;0.85;;;18.90;76.00;;;;;;5070434;28;20037;-60
2021/09/29 12:50:38;;;;;;;0.57;0.57;;;18.90;76.00;;;;;;5070699;28;20479;-58
2021/09/29 12:58:29;;;;;;;1.10;1.00;;;18.90;77.30;;;;;;5010767;28;20128;-60
2021/09/29 13:00:56;;;;;;;1.13;0.75;;;18.90;77.60;;;;;;5010430;28;20050;-62
2021/09/29 13:03:21;;;;;;;0.73;0.73;;;18.90;78.00;;;;;;5010777;28;20045;-61
2021/09/29 13:05:48;;;;;;;0.77;0.77;;;18.90;78.10;;;;;;5010825;28;20057;-62
2021/09/29 13:08:14;;;;;;;0.80;0.80;;;18.90;78.40;;;;;;5010405;28;20058;-61
2021/09/29 13:10:41;;;;;;;0.85;0.80;;;18.90;78.70;;;;;;5010512;28;20434;-60
2021/09/29 13:13:07;;;;;;;4.05;0.70;;;18.90;79.00;;;;;;4993364;28;20061;-61
2021/09/29 13:15:39;;;;;;;1.65;0.77;;;18.90;77.20;;;;;;5027590;28;20107;-60
2021/09/29 13:18:05;;;;;;;1.27;0.63;;;18.80;77.30;;;;;;5030403;28;20049;-61
2021/09/29 13:20:31;;;;;;;2.75;1.30;;;18.80;78.10;;;;;;5030449;28;20061;-63
2021/09/29 13:26:15;;;;;;;0.98;0.85;;;18.70;79.80;;;;;;4990935;28;20049;-57
2021/09/29 13:36:54;;;;;;;1.02;0.65;;;18.70;80.30;;;;;;5053174;28;20418;-61
2021/09/29 13:39:20;;;;;;;1.48;0.70;;;18.70;80.40;;;;;;5069602;28;20078;-62
2021/09/29 13:41:50;;;;;;;1.00;0.47;;;18.70;80.50;;;;;;5053071;28;20067;-56
2021/09/29 13:44:16;;;;;;;1.63;0.70;;;18.60;80.40;;;;;;5069802;28;20516;-63
2021/09/29 13:46:42;;;;;;;1.02;0.50;;;18.70;80.40;;;;;;5068812;28;20084;-54
2021/09/29 13:49:08;;;;;;;1.08;0.60;;;18.80;80.40;;;;;;5069901;28;20475;-58
2021/09/29 13:51:38;;;;;;;0.77;0.57;;;18.70;80.30;;;;;;5070044;28;20048;-59
2021/09/29 13:54:10;;;;;;;1.83;0.70;;;18.70;80.20;;;;;;5069923;28;20124;-60
2021/09/29 13:57:21;;;;;;;0.85;0.60;;;18.70;80.20;;;;;;5069809;28;20131;-59
2021/09/29 13:59:50;;;;;;;0.68;0.50;;;18.70;80.20;;;;;;5064561;28;20076;-59
2021/09/29 14:29:34;;;;;;;0.93;0.70;;;18.70;79.90;;;;;;5092598;28;20048;-55
2021/09/29 14:34:25;;;;;;;2.00;0.70;;;18.70;80.00;;;;;;5092193;28;20123;-59
2021/09/29 14:36:52;;;;;;;0.70;0.50;;;18.70;79.90;;;;;;5092408;28;20115;-59
2021/09/29 14:39:18;;;;;;;0.90;0.60;;;18.70;79.90;;;;;;5092410;28;20471;-58
2021/09/29 14:41:44;;;;;;;0.50;0.40;;;18.70;79.80;;;;;;5092487;28;20381;-51
2021/09/29 14:44:11;;;;;;;0.40;0.40;;;18.70;79.70;;;;;;5092136;28;20101;-58
2021/09/29 14:46:37;;;;;;;0.50;0.35;;;18.70;79.60;;;;;;5095878;28;20093;-52
2021/09/29 14:49:03;;;;;;;1.10;0.50;;;18.70;79.70;;;;;;5095306;28;20101;-58
2021/09/29 14:51:29;;;;;;;1.13;0.30;;;18.70;79.70;;;;;;5095753;28;20032;-56
2021/09/29 14:53:58;;;;;;;1.50;0.47;;;18.70;79.70;;;;;;5095557;28;20118;-58
2021/09/29 14:56:24;;;;;;;0.30;0.30;;;18.70;79.70;;;;;;5093550;28;20067;-53
2021/09/29 14:58:50;;;;;;;1.00;0.60;;;18.70;79.70;;;;;;5092373;28;20464;-54
2021/09/29 15:01:16;;;;;;;0.40;0.40;;;18.70;79.70;;;;;;5091533;28;20104;-52
2021/09/29 15:03:43;;;;;;;0.50;0.40;;;18.70;79.60;;;;;;5091553;28;20461;-54
2021/09/29 15:06:08;;;;;;;0.70;0.52;;;18.70;79.70;;;;;;5091414;28;20044;-52
2021/09/29 15:08:41;;;;;;;0.50;0.43;;;18.70;79.70;;;;;;5082534;28;20055;-51
2021/09/29 15:11:13;;;;;;;0.75;0.50;;;18.70;79.70;;;;;;5092156;28;20071;-49
2021/09/29 15:13:51;;;;;;;0.57;0.57;;;18.70;79.60;;;;;;5090554;28;20040;-56
2021/09/29 15:16:22;;;;;;;0.65;0.30;;;18.70;79.60;;;;;;5087249;28;20063;-54
2021/09/29 15:48:09;;;;;;;1.40;0.80;;;18.70;79.60;;;;;;5070570;28;20048;-53
2021/09/29 15:50:44;;;;;;;1.50;0.70;;;18.70;79.70;;;;;;5069972;28;20044;-57
2021/09/29 15:58:35;;;;;;;1.15;0.60;;;18.70;79.60;;;;;;5086226;28;20089;-56
2021/09/29 16:01:10;;;;;;;0.95;0.43;;;18.60;79.50;;;;;;5094655;28;20081;-54
2021/09/29 16:03:56;;;;;;;1.88;0.82;;;18.70;79.60;;;;;;5094654;28;20079;-58
2021/09/29 16:06:47;;;;;;;1.48;0.70;;;18.70;79.60;;;;;;5094298;28;20079;-57
2021/09/29 16:09:25;;;;;;;1.00;0.70;;;18.70;79.60;;;;;;5093809;28;20054;-60
2021/09/29 16:31:09;;;;;;;2.28;0.90;;;18.70;79.60;;;;;;5071359;28;20055;-58
2021/09/29 16:36:10;;;;;;;1.17;0.90;;;18.70;79.60;;;;;;5070994;28;20191;-53
2021/09/29 16:38:37;;;;;;;0.98;0.73;;;18.70;79.60;;;;;;5070346;28;20056;-63
2021/09/29 16:41:03;;;;;;;1.92;0.93;;;18.70;79.50;;;;;;5070877;28;20550;-55
2021/09/29 16:43:29;;;;;;;0.90;0.50;;;18.70;79.50;;;;;;5066472;28;20064;-55
2021/09/29 16:45:57;;;;;;;2.15;0.88;;;18.70;79.50;;;;;;5070384;28;20037;-58
2021/09/29 16:48:26;;;;;;;2.40;0.60;;;18.70;79.50;;;;;;5068962;28;20056;-59